sensor_id;sensor_type;location;lat;lon;timestamp;pressure;altitude;pressure_sealevel;temperature
85840;BMP280;76322;54.686;9.332;2024-03-23T00:54:54;100366.22;;;4.45
85840;BMP280;76322;54.686;9.332;2024-03-23T00:55:55;100364.63;;;4.48
85840;BMP280;76322;54.686;9.332;2024-03-23T00:56:56;100365.25;;;4.52
85840;BMP280;76322;54.686;9.332;2024-03-23T00:57:56;100361.91;;;4.48
85840;BMP280;76322;54.686;9.332;2024-03-23T00:58:57;100365.03;;;4.46
85840;BMP280;76322;54.686;9.332;2024-03-23T00:59:57;100358.03;;;4.49
85840;BMP280;76322;54.686;9.332;2024-03-23T01:00:58;100360.38;;;4.47
85840;BMP280;76322;54.686;9.332;2024-03-23T01:01:58;100367.84;;;4.43
85840;BMP280;76322;54.686;9.332;2024-03-23T01:02:59;100353.69;;;4.39
85840;BMP280;76322;54.686;9.332;2024-03-23T01:04:00;100349.78;;;4.40
85840;BMP280;76322;54.686;9.332;2024-03-23T01:05:00;100355.75;;;4.47
85840;BMP280;76322;54.686;9.332;2024-03-23T01:06:01;100353.47;;;4.46
85840;BMP280;76322;54.686;9.332;2024-03-23T01:07:02;100353.59;;;4.42
85840;BMP280;76322;54.686;9.332;2024-03-23T01:08:03;100344.38;;;4.40
85840;BMP280;76322;54.686;9.332;2024-03-23T01:09:03;100349.28;;;4.45
85840;BMP280;76322;54.686;9.332;2024-03-23T01:10:04;100345.91;;;4.41
85840;BMP280;76322;54.686;9.332;2024-03-23T01:11:04;100346.78;;;4.38
85840;BMP280;76322;54.686;9.332;2024-03-23T01:12:05;100335.97;;;4.38
85840;BMP280;76322;54.686;9.332;2024-03-23T01:13:06;100336.84;;;4.35
85840;BMP280;76322;54.686;9.332;2024-03-23T01:14:06;100337.91;;;4.37
85840;BMP280;76322;54.686;9.332;2024-03-23T01:15:07;100337.47;;;4.39
85840;BMP280;76322;54.686;9.332;2024-03-23T01:16:08;100326.69;;;4.39
85840;BMP280;76322;54.686;9.332;2024-03-23T01:17:08;100335.97;;;4.38
85840;BMP280;76322;54.686;9.332;2024-03-23T01:18:09;100344.31;;;4.43
85840;BMP280;76322;54.686;9.332;2024-03-23T01:19:09;100342.03;;;4.42
85840;BMP280;76322;54.686;9.332;2024-03-23T01:20:10;100336.63;;;4.42
85840;BMP280;76322;54.686;9.332;2024-03-23T01:21:11;100335.13;;;4.41
85840;BMP280;76322;54.686;9.332;2024-03-23T01:22:11;100335.84;;;4.41
85840;BMP280;76322;54.686;9.332;2024-03-23T01:23:12;100331.66;;;4.40
85840;BMP280;76322;54.686;9.332;2024-03-23T01:24:13;100328.53;;;4.42
85840;BMP280;76322;54.686;9.332;2024-03-23T01:25:13;100318.03;;;4.44
85840;BMP280;76322;54.686;9.332;2024-03-23T01:26:14;100321.19;;;4.42
85840;BMP280;76322;54.686;9.332;2024-03-23T01:27:15;100322.38;;;4.54
85840;BMP280;76322;54.686;9.332;2024-03-23T01:28:15;100321.19;;;4.55
85840;BMP280;76322;54.686;9.332;2024-03-23T01:29:16;100316.50;;;4.55
85840;BMP280;76322;54.686;9.332;2024-03-23T01:30:16;100314.38;;;4.50
85840;BMP280;76322;54.686;9.332;2024-03-23T01:31:17;100313.31;;;4.48
85840;BMP280;76322;54.686;9.332;2024-03-23T01:32:18;100315.69;;;4.46
85840;BMP280;76322;54.686;9.332;2024-03-23T01:33:19;100321.94;;;4.43
85840;BMP280;76322;54.686;9.332;2024-03-23T01:34:19;100315.88;;;4.51
85840;BMP280;76322;54.686;9.332;2024-03-23T01:35:21;100318.28;;;4.49
85840;BMP280;76322;54.686;9.332;2024-03-23T01:36:21;100314.47;;;4.47
85840;BMP280;76322;54.686;9.332;2024-03-23T01:37:22;100312.63;;;4.44
85840;BMP280;76322;54.686;9.332;2024-03-23T01:38:22;100309.19;;;4.43
85840;BMP280;76322;54.686;9.332;2024-03-23T01:39:23;100315.69;;;4.46
85840;BMP280;76322;54.686;9.332;2024-03-23T01:40:23;100309.63;;;4.42
85840;BMP280;76322;54.686;9.332;2024-03-23T01:41:24;100315.97;;;4.35
85840;BMP280;76322;54.686;9.332;2024-03-23T01:42:24;100309.06;;;4.34
85840;BMP280;76322;54.686;9.332;2024-03-23T01:43:25;100303.81;;;4.31
85840;BMP280;76322;54.686;9.332;2024-03-23T01:44:26;100308.88;;;4.29
85840;BMP280;76322;54.686;9.332;2024-03-23T01:45:27;100297.00;;;4.26
85840;BMP280;76322;54.686;9.332;2024-03-23T01:46:27;100305.59;;;4.34
85840;BMP280;76322;54.686;9.332;2024-03-23T01:47:28;100305.28;;;4.32
85840;BMP280;76322;54.686;9.332;2024-03-23T01:48:28;100307.81;;;4.26
85840;BMP280;76322;54.686;9.332;2024-03-23T01:49:29;100304.00;;;4.24
85840;BMP280;76322;54.686;9.332;2024-03-23T01:50:30;100294.72;;;4.25
85840;BMP280;76322;54.686;9.332;2024-03-23T01:51:35;100292.34;;;4.27
85840;BMP280;76322;54.686;9.332;2024-03-23T01:52:36;100300.13;;;4.25
85840;BMP280;76322;54.686;9.332;2024-03-23T01:53:37;100289.97;;;4.29
85840;BMP280;76322;54.686;9.332;2024-03-23T01:54:37;100291.91;;;4.28
85840;BMP280;76322;54.686;9.332;2024-03-23T01:55:38;100289.84;;;4.32
85840;BMP280;76322;54.686;9.332;2024-03-23T01:56:39;100290.50;;;4.49
85840;BMP280;76322;54.686;9.332;2024-03-23T01:57:40;100289.97;;;4.54
85840;BMP280;76322;54.686;9.332;2024-03-23T01:58:40;100287.91;;;4.58
85840;BMP280;76322;54.686;9.332;2024-03-23T01:59:41;100287.56;;;4.56
85840;BMP280;76322;54.686;9.332;2024-03-23T02:00:41;100292.22;;;4.55
85840;BMP280;76322;54.686;9.332;2024-03-23T02:01:42;100290.28;;;4.56
85840;BMP280;76322;54.686;9.332;2024-03-23T02:02:43;100288.13;;;4.51
85840;BMP280;76322;54.686;9.332;2024-03-23T02:03:44;100280.25;;;4.44
85840;BMP280;76322;54.686;9.332;2024-03-23T02:04:45;100278.09;;;4.39
85840;BMP280;76322;54.686;9.332;2024-03-23T02:05:46;100278.09;;;4.39
85840;BMP280;76322;54.686;9.332;2024-03-23T02:06:46;100283.56;;;4.35
85840;BMP280;76322;54.686;9.332;2024-03-23T02:07:47;100281.78;;;4.45
85840;BMP280;76322;54.686;9.332;2024-03-23T02:08:47;100278.72;;;4.43
85840;BMP280;76322;54.686;9.332;2024-03-23T02:09:48;100277.75;;;4.37
85840;BMP280;76322;54.686;9.332;2024-03-23T02:10:49;100269.66;;;4.37
85840;BMP280;76322;54.686;9.332;2024-03-23T02:11:50;100263.59;;;4.33
85840;BMP280;76322;54.686;9.332;2024-03-23T02:12:51;100260.28;;;4.29
85840;BMP280;76322;54.686;9.332;2024-03-23T02:13:52;100265.78;;;4.38
85840;BMP280;76322;54.686;9.332;2024-03-23T02:14:52;100250.88;;;4.33
85840;BMP280;76322;54.686;9.332;2024-03-23T02:15:53;100251.09;;;4.39
85840;BMP280;76322;54.686;9.332;2024-03-23T02:16:53;100252.03;;;4.32
85840;BMP280;76322;54.686;9.332;2024-03-23T02:17:54;100253.69;;;4.30
85840;BMP280;76322;54.686;9.332;2024-03-23T02:18:54;100252.19;;;4.29
85840;BMP280;76322;54.686;9.332;2024-03-23T02:19:55;100247.31;;;4.24
85840;BMP280;76322;54.686;9.332;2024-03-23T02:20:55;100253.13;;;4.22
85840;BMP280;76322;54.686;9.332;2024-03-23T02:21:56;100249.38;;;4.20
85840;BMP280;76322;54.686;9.332;2024-03-23T02:22:56;100249.06;;;4.18
85840;BMP280;76322;54.686;9.332;2024-03-23T02:23:59;100250.22;;;4.17
85840;BMP280;76322;54.686;9.332;2024-03-23T02:24:59;100243.66;;;4.18
85840;BMP280;76322;54.686;9.332;2024-03-23T02:26:00;100245.47;;;4.21
85840;BMP280;76322;54.686;9.332;2024-03-23T02:27:02;100237.16;;;4.15
85840;BMP280;76322;54.686;9.332;2024-03-23T02:28:02;100240.44;;;4.10
85840;BMP280;76322;54.686;9.332;2024-03-23T02:29:03;100237.09;;;4.06
85840;BMP280;76322;54.686;9.332;2024-03-23T02:30:04;100233.81;;;3.99
85840;BMP280;76322;54.686;9.332;2024-03-23T02:31:05;100230.78;;;3.97
85840;BMP280;76322;54.686;9.332;2024-03-23T02:32:06;100229.06;;;4.03
85840;BMP280;76322;54.686;9.332;2024-03-23T02:33:06;100221.31;;;4.05
85840;BMP280;76322;54.686;9.332;2024-03-23T02:34:07;100221.97;;;4.09
85840;BMP280;76322;54.686;9.332;2024-03-23T02:35:07;100221.97;;;4.09
85840;BMP280;76322;54.686;9.332;2024-03-23T02:36:08;100222.06;;;4.05
85840;BMP280;76322;54.686;9.332;2024-03-23T02:37:11;100216.78;;;4.02
85840;BMP280;76322;54.686;9.332;2024-03-23T02:38:12;100212.97;;;3.99
85840;BMP280;76322;54.686;9.332;2024-03-23T02:39:12;100213.41;;;3.98
85840;BMP280;76322;54.686;9.332;2024-03-23T02:40:13;100209.75;;;3.92
85840;BMP280;76322;54.686;9.332;2024-03-23T02:41:13;100210.28;;;3.87
85840;BMP280;76322;54.686;9.332;2024-03-23T02:42:14;100216.31;;;3.91
85840;BMP280;76322;54.686;9.332;2024-03-23T02:43:17;100216.31;;;3.91
85840;BMP280;76322;54.686;9.332;2024-03-23T02:44:17;100209.97;;;3.85
85840;BMP280;76322;54.686;9.332;2024-03-23T02:45:18;100212.00;;;3.81
85840;BMP280;76322;54.686;9.332;2024-03-23T02:46:18;100212.97;;;3.74
85840;BMP280;76322;54.686;9.332;2024-03-23T02:47:19;100211.88;;;3.72
85840;BMP280;76322;54.686;9.332;2024-03-23T02:48:19;100213.94;;;3.68
85840;BMP280;76322;54.686;9.332;2024-03-23T02:49:20;100200.13;;;3.66
85840;BMP280;76322;54.686;9.332;2024-03-23T02:50:22;100209.06;;;3.63
85840;BMP280;76322;54.686;9.332;2024-03-23T02:51:22;100211.88;;;3.59
85840;BMP280;76322;54.686;9.332;2024-03-23T02:52:23;100197.72;;;3.55
85840;BMP280;76322;54.686;9.332;2024-03-23T02:53:23;100208.00;;;3.60
85840;BMP280;76322;54.686;9.332;2024-03-23T02:54:24;100199.66;;;3.55
85840;BMP280;76322;54.686;9.332;2024-03-23T02:55:24;100211.72;;;3.50
85840;BMP280;76322;54.686;9.332;2024-03-23T02:56:25;100203.31;;;3.48
85840;BMP280;76322;54.686;9.332;2024-03-23T02:57:25;100202.22;;;3.46
85840;BMP280;76322;54.686;9.332;2024-03-23T02:58:26;100199.84;;;3.48
85840;BMP280;76322;54.686;9.332;2024-03-23T02:59:26;100197.16;;;3.48
85840;BMP280;76322;54.686;9.332;2024-03-23T03:00:28;100196.84;;;3.46
85840;BMP280;76322;54.686;9.332;2024-03-23T03:01:29;100199.22;;;3.44
85840;BMP280;76322;54.686;9.332;2024-03-23T03:02:29;100202.13;;;3.49
85840;BMP280;76322;54.686;9.332;2024-03-23T03:03:30;100202.03;;;3.53
85840;BMP280;76322;54.686;9.332;2024-03-23T03:04:31;100202.13;;;3.49
85840;BMP280;76322;54.686;9.332;2024-03-23T03:05:31;100196.06;;;3.45
85840;BMP280;76322;54.686;9.332;2024-03-23T03:06:32;100201.56;;;3.42
85840;BMP280;76322;54.686;9.332;2024-03-23T03:07:32;100197.81;;;3.39
85840;BMP280;76322;54.686;9.332;2024-03-23T03:08:33;100197.03;;;3.39
85840;BMP280;76322;54.686;9.332;2024-03-23T03:09:33;100198.34;;;3.34
85840;BMP280;76322;54.686;9.332;2024-03-23T03:10:35;100197.56;;;3.34
85840;BMP280;76322;54.686;9.332;2024-03-23T03:11:36;100196.16;;;3.29
85840;BMP280;76322;54.686;9.332;2024-03-23T03:12:37;100197.34;;;3.28
85840;BMP280;76322;54.686;9.332;2024-03-23T03:13:38;100188.16;;;3.26
85840;BMP280;76322;54.686;9.332;2024-03-23T03:14:38;100191.28;;;3.24
85840;BMP280;76322;54.686;9.332;2024-03-23T03:15:40;100186.97;;;3.27
85840;BMP280;76322;54.686;9.332;2024-03-23T03:16:41;100193.44;;;3.29
85840;BMP280;76322;54.686;9.332;2024-03-23T03:17:41;100180.16;;;3.22
85840;BMP280;76322;54.686;9.332;2024-03-23T03:18:42;100185.56;;;3.22
85840;BMP280;76322;54.686;9.332;2024-03-23T03:19:43;100185.97;;;3.21
85840;BMP280;76322;54.686;9.332;2024-03-23T03:20:43;100184.47;;;3.20
85840;BMP280;76322;54.686;9.332;2024-03-23T03:21:44;100179.97;;;3.17
85840;BMP280;76322;54.686;9.332;2024-03-23T03:22:44;100185.22;;;3.20
85840;BMP280;76322;54.686;9.332;2024-03-23T03:23:45;100184.06;;;3.21
85840;BMP280;76322;54.686;9.332;2024-03-23T03:24:45;100183.81;;;3.16
85840;BMP280;76322;54.686;9.332;2024-03-23T03:25:46;100181.47;;;3.18
85840;BMP280;76322;54.686;9.332;2024-03-23T03:26:47;100183.06;;;3.15
85840;BMP280;76322;54.686;9.332;2024-03-23T03:27:47;100176.91;;;3.15
85840;BMP280;76322;54.686;9.332;2024-03-23T03:28:48;100181.31;;;3.08
85840;BMP280;76322;54.686;9.332;2024-03-23T03:29:49;100173.22;;;3.08
85840;BMP280;76322;54.686;9.332;2024-03-23T03:30:49;100179.81;;;3.08
85840;BMP280;76322;54.686;9.332;2024-03-23T03:31:50;100170.63;;;3.05
85840;BMP280;76322;54.686;9.332;2024-03-23T03:32:53;100166.41;;;3.04
85840;BMP280;76322;54.686;9.332;2024-03-23T03:33:54;100164.91;;;3.03
85840;BMP280;76322;54.686;9.332;2024-03-23T03:34:55;100161.47;;;3.03
85840;BMP280;76322;54.686;9.332;2024-03-23T03:35:55;100165.34;;;3.01
85840;BMP280;76322;54.686;9.332;2024-03-23T03:36:57;100157.16;;;3.05
85840;BMP280;76322;54.686;9.332;2024-03-23T03:37:57;100162.56;;;3.05
85840;BMP280;76322;54.686;9.332;2024-03-23T03:38:58;100158.44;;;3.00
85840;BMP280;76322;54.686;9.332;2024-03-23T03:39:58;100161.63;;;2.95
85840;BMP280;76322;54.686;9.332;2024-03-23T03:40:59;100161.31;;;2.93
85840;BMP280;76322;54.686;9.332;2024-03-23T03:42:00;100149.34;;;2.94
85840;BMP280;76322;54.686;9.332;2024-03-23T03:43:02;100153.66;;;2.92
85840;BMP280;76322;54.686;9.332;2024-03-23T03:44:02;100147.50;;;2.91
85840;BMP280;76322;54.686;9.332;2024-03-23T03:45:04;100152.88;;;2.91
85840;BMP280;76322;54.686;9.332;2024-03-23T03:46:04;100150.00;;;2.86
85840;BMP280;76322;54.686;9.332;2024-03-23T03:47:06;100159.16;;;2.88
85840;BMP280;76322;54.686;9.332;2024-03-23T03:48:07;100153.44;;;2.86
85840;BMP280;76322;54.686;9.332;2024-03-23T03:49:08;100158.06;;;2.86
85840;BMP280;76322;54.686;9.332;2024-03-23T03:50:10;100153.88;;;2.85
85840;BMP280;76322;54.686;9.332;2024-03-23T03:51:10;100149.31;;;2.82
85840;BMP280;76322;54.686;9.332;2024-03-23T03:52:11;100152.34;;;2.84
85840;BMP280;76322;54.686;9.332;2024-03-23T03:53:11;100151.50;;;2.87
85840;BMP280;76322;54.686;9.332;2024-03-23T03:54:12;100145.78;;;2.85
85840;BMP280;76322;54.686;9.332;2024-03-23T03:55:14;100151.59;;;2.83
85840;BMP280;76322;54.686;9.332;2024-03-23T03:56:15;100136.59;;;2.82
85840;BMP280;76322;54.686;9.332;2024-03-23T03:57:15;100143.53;;;2.83
85840;BMP280;76322;54.686;9.332;2024-03-23T03:58:16;100136.94;;;2.84
85840;BMP280;76322;54.686;9.332;2024-03-23T03:59:17;100141.50;;;2.87
85840;BMP280;76322;54.686;9.332;2024-03-23T04:00:18;100135.34;;;2.87
85840;BMP280;76322;54.686;9.332;2024-03-23T04:01:18;100138.63;;;3.07
85840;BMP280;76322;54.686;9.332;2024-03-23T04:02:19;100143.94;;;3.11
85840;BMP280;76322;54.686;9.332;2024-03-23T04:03:19;100137.13;;;3.06
85840;BMP280;76322;54.686;9.332;2024-03-23T04:04:20;100134.00;;;3.08
85840;BMP280;76322;54.686;9.332;2024-03-23T04:05:23;100133.66;;;3.05
85840;BMP280;76322;54.686;9.332;2024-03-23T04:06:23;100125.59;;;3.05
85840;BMP280;76322;54.686;9.332;2024-03-23T04:07:24;100134.84;;;3.04
85840;BMP280;76322;54.686;9.332;2024-03-23T04:08:24;100130.97;;;3.05
85840;BMP280;76322;54.686;9.332;2024-03-23T04:09:25;100132.31;;;3.14
85840;BMP280;76322;54.686;9.332;2024-03-23T04:10:26;100137.34;;;3.12
85840;BMP280;76322;54.686;9.332;2024-03-23T04:11:27;100132.38;;;3.10
85840;BMP280;76322;54.686;9.332;2024-03-23T04:12:27;100124.06;;;3.04
85840;BMP280;76322;54.686;9.332;2024-03-23T04:13:28;100125.69;;;3.02
85840;BMP280;76322;54.686;9.332;2024-03-23T04:14:28;100129.22;;;2.99
85840;BMP280;76322;54.686;9.332;2024-03-23T04:15:29;100124.28;;;2.97
85840;BMP280;76322;54.686;9.332;2024-03-23T04:16:34;100129.72;;;2.94
85840;BMP280;76322;54.686;9.332;2024-03-23T04:17:35;100123.28;;;2.91
85840;BMP280;76322;54.686;9.332;2024-03-23T04:18:35;100117.59;;;2.89
85840;BMP280;76322;54.686;9.332;2024-03-23T04:19:36;100120.28;;;2.89
85840;BMP280;76322;54.686;9.332;2024-03-23T04:20:37;100120.16;;;2.93
85840;BMP280;76322;54.686;9.332;2024-03-23T04:21:37;100123.66;;;3.06
85840;BMP280;76322;54.686;9.332;2024-03-23T04:22:38;100118.69;;;3.04
85840;BMP280;76322;54.686;9.332;2024-03-23T04:23:38;100127.19;;;3.03
85840;BMP280;76322;54.686;9.332;2024-03-23T04:24:39;100125.47;;;2.96
85840;BMP280;76322;54.686;9.332;2024-03-23T04:25:40;100121.22;;;2.95
85840;BMP280;76322;54.686;9.332;2024-03-23T04:26:41;100127.16;;;2.90
85840;BMP280;76322;54.686;9.332;2024-03-23T04:27:42;100122.06;;;2.92
85840;BMP280;76322;54.686;9.332;2024-03-23T04:28:42;100125.47;;;2.96
85840;BMP280;76322;54.686;9.332;2024-03-23T04:29:47;100119.38;;;2.92
85840;BMP280;76322;54.686;9.332;2024-03-23T04:30:48;100116.06;;;2.88
85840;BMP280;76322;54.686;9.332;2024-03-23T04:31:49;100116.84;;;2.89
85840;BMP280;76322;54.686;9.332;2024-03-23T04:32:49;100112.50;;;2.91
85840;BMP280;76322;54.686;9.332;2024-03-23T04:33:50;100114.25;;;2.98
85840;BMP280;76322;54.686;9.332;2024-03-23T04:34:50;100108.28;;;2.90
85840;BMP280;76322;54.686;9.332;2024-03-23T04:35:51;100113.78;;;2.87
85840;BMP280;76322;54.686;9.332;2024-03-23T04:36:52;100110.16;;;2.93
85840;BMP280;76322;54.686;9.332;2024-03-23T04:37:55;100104.56;;;3.00
85840;BMP280;76322;54.686;9.332;2024-03-23T04:38:59;100113.16;;;2.95
85840;BMP280;76322;54.686;9.332;2024-03-23T04:40:02;100111.00;;;2.90
85840;BMP280;76322;54.686;9.332;2024-03-23T04:41:03;100100.00;;;2.85
85840;BMP280;76322;54.686;9.332;2024-03-23T04:42:04;100108.16;;;2.81
85840;BMP280;76322;54.686;9.332;2024-03-23T04:43:05;100099.44;;;2.77
85840;BMP280;76322;54.686;9.332;2024-03-23T04:44:06;100106.84;;;2.73
85840;BMP280;76322;54.686;9.332;2024-03-23T04:45:06;100103.47;;;2.69
85840;BMP280;76322;54.686;9.332;2024-03-23T04:46:07;100100.47;;;2.67
85840;BMP280;76322;54.686;9.332;2024-03-23T04:47:08;100106.34;;;2.62
85840;BMP280;76322;54.686;9.332;2024-03-23T04:48:08;100098.41;;;2.59
85840;BMP280;76322;54.686;9.332;2024-03-23T04:49:09;100101.59;;;2.54
85840;BMP280;76322;54.686;9.332;2024-03-23T04:50:10;100099.75;;;2.51
85840;BMP280;76322;54.686;9.332;2024-03-23T04:51:11;100098.66;;;2.48
85840;BMP280;76322;54.686;9.332;2024-03-23T04:52:14;100098.66;;;2.48
85840;BMP280;76322;54.686;9.332;2024-03-23T04:53:15;100092.94;;;2.46
85840;BMP280;76322;54.686;9.332;2024-03-23T04:54:16;100094.97;;;2.42
85840;BMP280;76322;54.686;9.332;2024-03-23T04:55:16;100094.63;;;2.40
85840;BMP280;76322;54.686;9.332;2024-03-23T04:56:17;100092.78;;;2.37
85840;BMP280;76322;54.686;9.332;2024-03-23T04:57:18;100086.72;;;2.33
85840;BMP280;76322;54.686;9.332;2024-03-23T04:58:19;100083.34;;;2.29
85840;BMP280;76322;54.686;9.332;2024-03-23T04:59:19;100084.13;;;2.30
85840;BMP280;76322;54.686;9.332;2024-03-23T05:00:20;100085.72;;;2.27
85840;BMP280;76322;54.686;9.332;2024-03-23T05:01:20;100082.38;;;2.23
85840;BMP280;76322;54.686;9.332;2024-03-23T05:02:22;100086.66;;;2.21
85840;BMP280;76322;54.686;9.332;2024-03-23T05:03:23;100085.59;;;2.18
85840;BMP280;76322;54.686;9.332;2024-03-23T05:04:24;100078.34;;;2.15
85840;BMP280;76322;54.686;9.332;2024-03-23T05:05:24;100083.72;;;2.15
85840;BMP280;76322;54.686;9.332;2024-03-23T05:06:25;100092.56;;;2.16
85840;BMP280;76322;54.686;9.332;2024-03-23T05:07:26;100080.38;;;2.11
85840;BMP280;76322;54.686;9.332;2024-03-23T05:08:26;100084.16;;;2.14
85840;BMP280;76322;54.686;9.332;2024-03-23T05:09:27;100081.53;;;2.10
85840;BMP280;76322;54.686;9.332;2024-03-23T05:10:30;100079.59;;;2.11
85840;BMP280;76322;54.686;9.332;2024-03-23T05:11:35;100082.28;;;2.11
85840;BMP280;76322;54.686;9.332;2024-03-23T05:12:37;100085.41;;;2.09
85840;BMP280;76322;54.686;9.332;2024-03-23T05:13:37;100086.91;;;2.10
85840;BMP280;76322;54.686;9.332;2024-03-23T05:14:38;100085.41;;;2.09
85840;BMP280;76322;54.686;9.332;2024-03-23T05:15:38;100086.66;;;2.05
85840;BMP280;76322;54.686;9.332;2024-03-23T05:16:39;100078.69;;;2.01
85840;BMP280;76322;54.686;9.332;2024-03-23T05:17:40;100086.00;;;2.01
85840;BMP280;76322;54.686;9.332;2024-03-23T05:18:40;100077.50;;;2.02
85840;BMP280;76322;54.686;9.332;2024-03-23T05:19:41;100077.50;;;2.02
85840;BMP280;76322;54.686;9.332;2024-03-23T05:20:41;100076.00;;;2.01
85840;BMP280;76322;54.686;9.332;2024-03-23T05:21:42;100078.28;;;2.03
85840;BMP280;76322;54.686;9.332;2024-03-23T05:22:42;100076.00;;;2.01
85840;BMP280;76322;54.686;9.332;2024-03-23T05:23:43;100078.69;;;2.01
85840;BMP280;76322;54.686;9.332;2024-03-23T05:24:45;100072.91;;;2.03
85840;BMP280;76322;54.686;9.332;2024-03-23T05:25:45;100074.41;;;2.04
85840;BMP280;76322;54.686;9.332;2024-03-23T05:26:46;100072.47;;;2.04
85840;BMP280;76322;54.686;9.332;2024-03-23T05:27:47;100072.13;;;2.02
85840;BMP280;76322;54.686;9.332;2024-03-23T05:28:47;100070.19;;;2.03
85840;BMP280;76322;54.686;9.332;2024-03-23T05:29:48;100080.03;;;2.09
85840;BMP280;76322;54.686;9.332;2024-03-23T05:30:55;100074.16;;;2.14
85840;BMP280;76322;54.686;9.332;2024-03-23T05:31:57;100075.91;;;2.21
85840;BMP280;76322;54.686;9.332;2024-03-23T05:32:57;100073.16;;;2.24
85840;BMP280;76322;54.686;9.332;2024-03-23T05:33:58;100080.09;;;2.22
85840;BMP280;76322;54.686;9.332;2024-03-23T05:34:58;100068.91;;;2.23
85840;BMP280;76322;54.686;9.332;2024-03-23T05:36:00;100070.78;;;2.26
85840;BMP280;76322;54.686;9.332;2024-03-23T05:37:01;100067.88;;;2.33
85840;BMP280;76322;54.686;9.332;2024-03-23T05:38:01;100070.72;;;2.58
85840;BMP280;76322;54.686;9.332;2024-03-23T05:39:02;100071.78;;;2.61
85840;BMP280;76322;54.686;9.332;2024-03-23T05:40:03;100071.03;;;2.60
85840;BMP280;76322;54.686;9.332;2024-03-23T05:41:04;100065.34;;;2.58
85840;BMP280;76322;54.686;9.332;2024-03-23T05:42:06;100071.03;;;2.60
85840;BMP280;76322;54.686;9.332;2024-03-23T05:43:06;100069.66;;;2.68
85840;BMP280;76322;54.686;9.332;2024-03-23T05:44:07;100072.03;;;2.66
85840;BMP280;76322;54.686;9.332;2024-03-23T05:45:08;100070.19;;;2.63
85840;BMP280;76322;54.686;9.332;2024-03-23T05:46:08;100071.09;;;2.73
85840;BMP280;76322;54.686;9.332;2024-03-23T05:47:09;100062.34;;;2.69
85840;BMP280;76322;54.686;9.332;2024-03-23T05:48:09;100058.88;;;2.68
85840;BMP280;76322;54.686;9.332;2024-03-23T05:49:10;100054.69;;;2.67
85840;BMP280;76322;54.686;9.332;2024-03-23T05:50:10;100066.22;;;2.68
85840;BMP280;76322;54.686;9.332;2024-03-23T05:51:12;100067.31;;;2.70
85840;BMP280;76322;54.686;9.332;2024-03-23T05:52:13;100053.09;;;2.70
85840;BMP280;76322;54.686;9.332;2024-03-23T05:53:17;100061.94;;;2.70
85840;BMP280;76322;54.686;9.332;2024-03-23T05:54:18;100067.31;;;2.70
85840;BMP280;76322;54.686;9.332;2024-03-23T05:55:19;100056.63;;;2.67
85840;BMP280;76322;54.686;9.332;2024-03-23T05:56:19;100061.75;;;2.77
85840;BMP280;76322;54.686;9.332;2024-03-23T05:57:20;100060.97;;;2.77
85840;BMP280;76322;54.686;9.332;2024-03-23T05:58:21;100056.78;;;2.76
85840;BMP280;76322;54.686;9.332;2024-03-23T05:59:21;100062.38;;;2.81
85840;BMP280;76322;54.686;9.332;2024-03-23T06:00:22;100065.44;;;2.83
85840;BMP280;76322;54.686;9.332;2024-03-23T06:01:23;100060.03;;;2.83
85840;BMP280;76322;54.686;9.332;2024-03-23T06:02:24;100060.03;;;2.83
85840;BMP280;76322;54.686;9.332;2024-03-23T06:03:26;100064.16;;;2.88
85840;BMP280;76322;54.686;9.332;2024-03-23T06:04:26;100060.81;;;2.96
85840;BMP280;76322;54.686;9.332;2024-03-23T06:05:27;100059.19;;;2.99
85840;BMP280;76322;54.686;9.332;2024-03-23T06:06:29;100063.31;;;3.03
85840;BMP280;76322;54.686;9.332;2024-03-23T06:07:31;100053.94;;;3.08
85840;BMP280;76322;54.686;9.332;2024-03-23T06:08:32;100061.19;;;3.11
85840;BMP280;76322;54.686;9.332;2024-03-23T06:09:33;100053.84;;;3.12
85840;BMP280;76322;54.686;9.332;2024-03-23T06:10:34;100056.22;;;3.22
85840;BMP280;76322;54.686;9.332;2024-03-23T06:11:36;100059.47;;;3.30
85840;BMP280;76322;54.686;9.332;2024-03-23T06:12:37;100053.22;;;3.33
85840;BMP280;76322;54.686;9.332;2024-03-23T06:13:38;100055.38;;;3.38
85840;BMP280;76322;54.686;9.332;2024-03-23T06:14:39;100054.19;;;3.39
85840;BMP280;76322;54.686;9.332;2024-03-23T06:15:40;100057.56;;;3.43
85840;BMP280;76322;54.686;9.332;2024-03-23T06:16:41;100052.78;;;3.47
85840;BMP280;76322;54.686;9.332;2024-03-23T06:17:43;100054.94;;;3.52
85840;BMP280;76322;54.686;9.332;2024-03-23T06:18:44;100062.72;;;3.62
85840;BMP280;76322;54.686;9.332;2024-03-23T06:19:45;100049.19;;;3.75
85840;BMP280;76322;54.686;9.332;2024-03-23T06:20:46;100050.50;;;3.83
85840;BMP280;76322;54.686;9.332;2024-03-23T06:21:47;100051.88;;;4.00
85840;BMP280;76322;54.686;9.332;2024-03-23T06:22:48;100059.63;;;4.10
85840;BMP280;76322;54.686;9.332;2024-03-23T06:23:51;100056.47;;;4.12
85840;BMP280;76322;54.686;9.332;2024-03-23T06:24:52;100056.34;;;4.28
85840;BMP280;76322;54.686;9.332;2024-03-23T06:25:53;100061.16;;;4.33
85840;BMP280;76322;54.686;9.332;2024-03-23T06:26:55;100055.31;;;4.34
85840;BMP280;76322;54.686;9.332;2024-03-23T06:27:56;100055.94;;;4.38
85840;BMP280;76322;54.686;9.332;2024-03-23T06:28:58;100061.03;;;4.36
85840;BMP280;76322;54.686;9.332;2024-03-23T06:30:00;100046.44;;;4.34
85840;BMP280;76322;54.686;9.332;2024-03-23T06:31:01;100050.81;;;4.31
85840;BMP280;76322;54.686;9.332;2024-03-23T06:32:03;100058.59;;;4.29
85840;BMP280;76322;54.686;9.332;2024-03-23T06:33:04;100050.94;;;4.28
85840;BMP280;76322;54.686;9.332;2024-03-23T06:34:06;100055.75;;;4.33
85840;BMP280;76322;54.686;9.332;2024-03-23T06:35:07;100055.50;;;4.40
85840;BMP280;76322;54.686;9.332;2024-03-23T06:36:10;100053.69;;;4.37
85840;BMP280;76322;54.686;9.332;2024-03-23T06:37:12;100047.97;;;4.35
85840;BMP280;76322;54.686;9.332;2024-03-23T06:38:13;100059.41;;;4.39
85840;BMP280;76322;54.686;9.332;2024-03-23T06:39:15;100058.22;;;4.40
85840;BMP280;76322;54.686;9.332;2024-03-23T06:40:16;100061.00;;;4.49
85840;BMP280;76322;54.686;9.332;2024-03-23T06:41:19;100059.66;;;4.53
85840;BMP280;76322;54.686;9.332;2024-03-23T06:42:20;100055.16;;;4.50
85840;BMP280;76322;54.686;9.332;2024-03-23T06:43:21;100055.84;;;4.63
85840;BMP280;76322;54.686;9.332;2024-03-23T06:44:22;100065.03;;;4.66
85840;BMP280;76322;54.686;9.332;2024-03-23T06:45:24;100057.97;;;4.68